createdAt,value
2022-08-01T00:01:16.598Z,6.05
2022-08-01T00:03:44.529Z,6.56
2022-08-01T00:06:12.459Z,6.48
2022-08-01T00:08:40.419Z,6.40
2022-08-01T00:11:10.196Z,6.63
2022-08-01T00:13:38.146Z,6.42
2022-08-01T00:16:06.255Z,7.13
2022-08-01T00:18:34.313Z,6.66
2022-08-01T00:21:03.869Z,6.88
2022-08-01T00:23:32.248Z,6.96
2022-08-01T00:26:00.297Z,6.35
2022-08-01T00:28:28.468Z,6.76
2022-08-01T00:30:56.407Z,6.63
2022-08-01T00:33:24.318Z,6.37
2022-08-01T00:35:52.321Z,6.52
2022-08-01T00:38:20.267Z,6.87
2022-08-01T00:40:48.886Z,8.13
2022-08-01T00:43:17.002Z,7.43
2022-08-01T00:45:44.989Z,7.48
2022-08-01T00:48:12.964Z,6.97
2022-08-01T00:50:41.232Z,7.21
2022-08-01T00:53:09.702Z,7.40
2022-08-01T00:55:48.762Z,7.07
2022-08-01T00:58:16.670Z,7.08
2022-08-01T01:00:52.829Z,7.46
2022-08-01T01:03:43.361Z,7.35
2022-08-01T01:06:20.899Z,7.07
2022-08-01T01:09:38.050Z,7.42
2022-08-01T01:12:34.801Z,7.41
2022-08-01T01:15:15.205Z,7.09
2022-08-01T01:18:07.123Z,6.74
2022-08-01T01:20:39.539Z,7.27
2022-08-01T01:23:27.326Z,6.99
2022-08-01T01:26:13.440Z,6.59
2022-08-01T01:29:05.491Z,7.20
2022-08-01T01:31:43.454Z,6.87
2022-08-01T01:34:15.078Z,6.70
2022-08-01T01:36:45.247Z,6.93
2022-08-01T01:39:15.366Z,6.84
2022-08-01T01:41:45.359Z,7.04
2022-08-01T01:44:14.397Z,6.55
2022-08-01T01:46:43.303Z,7.02
2022-08-01T01:49:12.809Z,7.12
2022-08-01T01:51:53.302Z,7.24
2022-08-01T01:54:35.087Z,7.16
2022-08-01T01:57:05.083Z,6.97
2022-08-01T01:59:35.968Z,7.08
2022-08-01T02:02:06.896Z,6.99
2022-08-01T02:04:43.495Z,6.96
2022-08-01T02:07:18.533Z,7.12
2022-08-01T02:09:48.387Z,7.38
2022-08-01T02:12:19.246Z,7.47
2022-08-01T02:14:48.346Z,7.93
2022-08-01T02:17:19.002Z,7.29
2022-08-01T02:19:47.690Z,7.47
2022-08-01T02:22:33.799Z,7.26
2022-08-01T02:25:21.878Z,7.08
2022-08-01T02:28:11.934Z,7.12
2022-08-01T02:30:45.312Z,6.89
2022-08-01T02:33:17.699Z,6.92
2022-08-01T02:36:31.691Z,6.84
2022-08-01T02:38:42.293Z,6.90
2022-08-01T02:41:14.272Z,6.61
2022-08-01T02:43:53.258Z,6.47
2022-08-01T02:46:27.258Z,6.63
2022-08-01T02:49:00.614Z,6.55
2022-08-01T02:51:32.013Z,6.66
2022-08-01T02:54:03.793Z,6.69
2022-08-01T02:56:37.056Z,6.22
2022-08-01T02:59:26.725Z,5.80
2022-08-01T03:02:00.733Z,6.18
2022-08-01T03:04:34.358Z,5.89
2022-08-01T03:07:05.058Z,5.90
2022-08-01T03:09:39.970Z,5.99
2022-08-01T03:12:13.487Z,5.80
2022-08-01T03:14:44.413Z,5.48
2022-08-01T03:17:12.989Z,5.44
2022-08-01T03:19:43.555Z,5.68
2022-08-01T03:22:14.410Z,5.57
2022-08-01T03:24:45.562Z,5.20
2022-08-01T03:27:15.582Z,5.45
2022-08-01T03:29:46.534Z,5.75
2022-08-01T03:32:16.218Z,5.55
2022-08-01T03:34:44.322Z,6.04
2022-08-01T03:37:19.594Z,5.57
2022-08-01T03:40:14.934Z,5.92
2022-08-01T03:42:49.903Z,5.87
2022-08-01T03:45:24.327Z,5.78
2022-08-01T03:48:00.407Z,5.29
2022-08-01T03:50:31.911Z,6.85
2022-08-01T03:53:01.405Z,7.11
2022-08-01T03:55:32.444Z,6.25
2022-08-01T03:58:01.286Z,6.50
2022-08-01T04:00:29.787Z,5.44
2022-08-01T04:02:58.619Z,5.69
2022-08-01T04:05:26.718Z,5.70
2022-08-01T04:07:57.743Z,5.66
2022-08-01T04:10:26.679Z,5.67
2022-08-01T04:12:55.746Z,5.46
2022-08-01T04:15:23.668Z,5.48
2022-08-01T04:17:51.631Z,5.39
2022-08-01T04:20:19.533Z,5.55
2022-08-01T04:22:47.726Z,5.39
2022-08-01T04:25:21.615Z,5.68
2022-08-01T04:27:52.657Z,5.73
2022-08-01T04:30:32.996Z,5.98
2022-08-01T04:33:02.953Z,5.96
2022-08-01T04:36:03.261Z,6.14
2022-08-01T04:38:24.277Z,6.28
2022-08-01T04:40:54.007Z,6.18
2022-08-01T04:43:22.143Z,6.32
2022-08-01T04:45:51.687Z,6.42
2022-08-01T04:48:22.770Z,6.67
2022-08-01T04:50:51.530Z,6.30
2022-08-01T04:53:23.095Z,6.13
2022-08-01T04:55:51.083Z,6.56
2022-08-01T04:58:19.271Z,6.38
2022-08-01T05:00:48.028Z,6.41
2022-08-01T05:03:16.190Z,6.34
2022-08-01T05:05:44.212Z,6.49
2022-08-01T05:08:12.109Z,6.84
2022-08-01T05:10:40.147Z,8.04
2022-08-01T05:13:08.122Z,7.41
2022-08-01T05:15:37.766Z,8.29
2022-08-01T05:18:08.753Z,8.66
2022-08-01T05:20:38.163Z,8.42
2022-08-01T05:23:06.587Z,8.99
2022-08-01T05:25:57.438Z,8.24
2022-08-01T05:28:26.308Z,8.31
2022-08-01T05:30:55.987Z,8.27
2022-08-01T05:33:24.082Z,9.29
2022-08-01T05:35:52.106Z,9.11
2022-08-01T05:38:20.026Z,8.65
2022-08-01T05:40:47.972Z,8.38
2022-08-01T05:43:15.899Z,8.26
2022-08-01T05:45:43.865Z,10.02
2022-08-01T05:48:11.795Z,9.55
2022-08-01T05:50:39.817Z,10.36
2022-08-01T05:53:07.725Z,9.95
2022-08-01T05:55:36.769Z,9.69
2022-08-01T05:58:05.511Z,10.11
2022-08-01T06:00:33.438Z,9.30
2022-08-01T06:03:01.345Z,9.50
2022-08-01T06:05:29.470Z,9.51
2022-08-01T06:07:59.057Z,9.88
2022-08-01T06:10:27.000Z,10.18
2022-08-01T06:12:55.002Z,10.22
2022-08-01T06:15:22.974Z,9.72
2022-08-01T06:17:50.883Z,9.75
2022-08-01T06:20:18.863Z,9.41
2022-08-01T06:22:52.475Z,9.23
2022-08-01T06:25:21.386Z,8.60
2022-08-01T06:27:50.632Z,8.19
2022-08-01T06:30:18.718Z,8.76
2022-08-01T06:32:46.738Z,9.35
2022-08-01T06:35:15.695Z,8.52
2022-08-01T06:37:43.857Z,8.31
2022-08-01T06:40:16.971Z,8.08
2022-08-01T06:42:47.570Z,7.59
2022-08-01T06:45:15.831Z,8.02
2022-08-01T06:47:48.865Z,8.34
2022-08-01T06:50:19.259Z,7.92
2022-08-01T06:52:47.223Z,7.85
2022-08-01T06:55:15.512Z,8.05
2022-08-01T06:58:01.789Z,7.97
2022-08-01T07:00:29.925Z,7.12
2022-08-01T07:03:02.612Z,7.10
2022-08-01T07:05:32.085Z,6.71
2022-08-01T07:08:00.000Z,6.41
2022-08-01T07:10:29.286Z,6.39
2022-08-01T07:12:57.182Z,6.14
2022-08-01T07:15:27.531Z,6.11
2022-08-01T07:17:55.701Z,5.93
2022-08-01T07:20:23.766Z,5.99
2022-08-01T07:22:51.670Z,6.04
2022-08-01T07:25:19.567Z,5.64
2022-08-01T07:27:47.713Z,5.65
2022-08-01T07:30:15.769Z,5.46
2022-08-01T07:32:43.657Z,5.41
2022-08-01T07:35:11.762Z,5.77
2022-08-01T07:37:42.077Z,5.82
2022-08-01T07:40:18.251Z,5.73
2022-08-01T07:42:47.065Z,5.65
2022-08-01T07:45:16.149Z,5.45
2022-08-01T07:47:44.144Z,5.68
2022-08-01T07:50:13.864Z,5.58
2022-08-01T07:52:42.633Z,6.06
2022-08-01T07:55:16.313Z,5.73
2022-08-01T07:57:45.092Z,5.80
2022-08-01T08:00:14.144Z,5.81
2022-08-01T08:02:42.410Z,5.75
2022-08-01T08:05:10.353Z,5.67
2022-08-01T08:07:40.029Z,6.14
2022-08-01T08:10:08.486Z,5.84
2022-08-01T08:12:36.411Z,6.19
2022-08-01T08:15:06.757Z,5.64
2022-08-01T08:17:36.055Z,5.87
2022-08-01T08:20:09.314Z,5.90
2022-08-01T08:22:37.865Z,5.67
2022-08-01T08:25:08.023Z,5.91
2022-08-01T08:27:37.409Z,5.68
2022-08-01T08:30:08.774Z,6.00
2022-08-01T08:32:37.185Z,5.63
2022-08-01T08:35:05.988Z,6.00
2022-08-01T08:37:37.886Z,6.05
2022-08-01T08:40:11.436Z,6.35
2022-08-01T08:42:41.105Z,5.61
2022-08-01T08:45:11.850Z,6.28
2022-08-01T08:47:43.360Z,6.36
2022-08-01T08:50:11.741Z,5.94
2022-08-01T08:52:40.388Z,5.88
2022-08-01T08:55:10.460Z,7.09
2022-08-01T08:57:41.204Z,5.76
2022-08-01T09:00:10.829Z,6.63
2022-08-01T09:02:47.633Z,6.09
2022-08-01T09:05:19.485Z,5.86
2022-08-01T09:07:48.026Z,5.77
2022-08-01T09:10:16.069Z,5.64
2022-08-01T09:13:06.999Z,5.62
2022-08-01T09:15:42.242Z,6.20
2022-08-01T09:18:35.735Z,6.16
2022-08-01T09:21:18.979Z,6.03
2022-08-01T09:23:54.079Z,5.74
2022-08-01T09:26:32.482Z,5.86
2022-08-01T09:29:05.935Z,5.81
2022-08-01T09:31:47.328Z,6.23
2022-08-01T09:34:19.939Z,5.68
2022-08-01T09:36:54.331Z,5.94
2022-08-01T09:39:25.527Z,5.47
2022-08-01T09:41:56.473Z,5.70
2022-08-01T09:44:44.792Z,5.90
2022-08-01T09:47:23.434Z,5.83
2022-08-01T09:49:57.394Z,5.82
2022-08-01T09:52:28.919Z,5.94
2022-08-01T09:55:03.110Z,5.77
2022-08-01T09:57:31.609Z,5.91
2022-08-01T10:00:02.200Z,5.78
2022-08-01T10:02:44.264Z,5.68
2022-08-01T10:05:18.837Z,5.90
2022-08-01T10:08:08.008Z,5.81
2022-08-01T10:10:37.478Z,5.61
2022-08-01T10:13:07.134Z,5.93
2022-08-01T10:15:38.208Z,6.03
2022-08-01T10:18:21.453Z,5.83
2022-08-01T10:20:56.365Z,5.90
2022-08-01T10:23:39.765Z,5.20
2022-08-01T10:26:11.669Z,5.38
2022-08-01T10:28:42.036Z,6.11
2022-08-01T10:31:14.476Z,5.54
2022-08-01T10:33:52.263Z,5.22
2022-08-01T10:36:22.546Z,5.83
2022-08-01T10:38:51.287Z,5.63
2022-08-01T10:41:20.147Z,5.03
2022-08-01T10:43:48.109Z,5.24
2022-08-01T10:46:20.017Z,5.15
2022-08-01T10:48:57.876Z,6.19
2022-08-01T10:51:51.581Z,5.00
2022-08-01T10:54:16.759Z,5.54
2022-08-01T10:56:50.710Z,4.98
2022-08-01T10:59:29.107Z,4.83
2022-08-01T11:02:10.263Z,4.74
2022-08-01T11:04:59.415Z,5.10
2022-08-01T11:07:56.782Z,5.23
2022-08-01T11:10:39.798Z,5.35
2022-08-01T11:13:12.279Z,4.93
2022-08-01T11:15:50.465Z,5.37
2022-08-01T11:18:30.866Z,5.39
2022-08-01T11:21:56.350Z,4.74
2022-08-01T11:23:52.861Z,4.92
2022-08-01T11:26:29.373Z,4.54
2022-08-01T11:29:23.517Z,4.66
2022-08-01T11:31:52.899Z,5.20
2022-08-01T11:34:21.230Z,6.24
2022-08-01T11:37:05.267Z,5.49
2022-08-01T11:39:38.479Z,5.09
2022-08-01T11:42:21.041Z,5.08
2022-08-01T11:44:51.246Z,4.92
2022-08-01T11:47:19.505Z,5.01
2022-08-01T11:49:56.113Z,4.71
2022-08-01T11:52:32.738Z,4.39
2022-08-01T11:55:02.516Z,4.83
2022-08-01T11:57:35.699Z,4.48
2022-08-01T12:00:17.979Z,4.22
2022-08-01T12:02:48.152Z,4.27
2022-08-01T12:05:21.496Z,4.43
2022-08-01T12:07:54.774Z,4.50
2022-08-01T12:10:29.795Z,4.32
2022-08-01T12:13:02.178Z,4.34
2022-08-01T12:15:39.597Z,4.40
2022-08-01T12:18:08.237Z,4.27
2022-08-01T12:20:56.227Z,3.92
2022-08-01T12:23:25.242Z,4.02
2022-08-01T12:25:54.122Z,4.01
2022-08-01T12:28:23.647Z,4.28
2022-08-01T12:30:51.957Z,4.14
2022-08-01T12:33:21.552Z,3.95
2022-08-01T12:35:49.766Z,3.89
2022-08-01T12:38:20.705Z,3.86
2022-08-01T12:40:53.560Z,3.64
2022-08-01T12:43:27.567Z,3.45
2022-08-01T12:46:00.805Z,3.36
2022-08-01T12:48:31.978Z,3.69
2022-08-01T12:51:02.220Z,3.47
2022-08-01T12:53:40.628Z,3.65
2022-08-01T12:56:11.383Z,3.35
2022-08-01T12:58:40.426Z,3.26
2022-08-01T13:01:13.159Z,3.66
2022-08-01T13:03:41.745Z,3.86
2022-08-01T13:06:16.278Z,4.28
2022-08-01T13:08:46.400Z,3.45
2022-08-01T13:11:18.224Z,3.30
2022-08-01T13:13:49.626Z,2.84
2022-08-01T13:16:31.055Z,2.49
2022-08-01T13:19:07.229Z,2.33
2022-08-01T13:21:53.971Z,2.33
2022-08-01T13:24:30.523Z,2.03
2022-08-01T13:27:05.692Z,2.54
2022-08-01T13:37:38.808Z,2.56
2022-08-01T13:40:09.467Z,2.26
2022-08-01T13:42:38.181Z,2.59
2022-08-01T13:45:14.434Z,2.11
2022-08-01T13:48:03.852Z,2.70
2022-08-01T13:50:31.833Z,2.15
2022-08-01T13:53:00.009Z,2.04
2022-08-01T13:55:32.504Z,2.42
2022-08-01T13:58:03.878Z,2.51
2022-08-01T14:00:32.011Z,2.42
2022-08-01T14:02:59.948Z,2.31
2022-08-01T14:05:27.936Z,2.49
2022-08-01T14:07:56.417Z,2.03
2022-08-01T14:10:25.397Z,2.10
2022-08-01T14:12:53.373Z,2.35
2022-08-01T14:15:38.389Z,2.39
2022-08-01T14:18:09.545Z,2.31
2022-08-01T14:20:39.358Z,2.24
2022-08-01T14:23:08.787Z,2.47
2022-08-01T14:26:04.210Z,2.64
2022-08-01T14:28:31.188Z,2.57
2022-08-01T14:30:59.607Z,3.02
2022-08-01T14:33:27.722Z,2.89
2022-08-01T14:36:06.114Z,2.68
2022-08-01T14:38:46.473Z,2.76
2022-08-01T14:41:15.782Z,2.95
2022-08-01T14:43:43.862Z,2.82
2022-08-01T14:46:13.452Z,2.74
2022-08-01T14:48:41.683Z,2.97
2022-08-01T14:51:09.739Z,3.07
2022-08-01T14:53:38.546Z,2.90
2022-08-01T14:56:07.748Z,2.88
2022-08-01T14:58:35.708Z,3.16
2022-08-01T15:01:05.456Z,2.77
2022-08-01T15:03:33.498Z,3.06
2022-08-01T15:06:01.576Z,3.56
2022-08-01T15:08:30.899Z,3.57
2022-08-01T15:10:59.109Z,5.50
2022-08-01T15:13:27.018Z,3.40
2022-08-01T15:15:54.939Z,3.70
2022-08-01T15:18:29.090Z,3.71
2022-08-01T15:20:58.302Z,3.37
2022-08-01T15:23:26.394Z,3.03
2022-08-01T15:25:54.358Z,2.99
2022-08-01T15:28:22.302Z,3.80
2022-08-01T15:30:50.316Z,3.33
2022-08-01T15:33:18.324Z,2.97
2022-08-01T15:35:46.535Z,2.75
2022-08-01T15:38:14.409Z,2.74
2022-08-01T15:40:42.378Z,4.09
2022-08-01T15:43:15.650Z,2.88
2022-08-01T15:45:48.469Z,2.69
2022-08-01T15:48:17.902Z,2.86
2022-08-01T15:50:46.398Z,2.80
2022-08-01T15:53:14.426Z,3.35
2022-08-01T15:55:48.861Z,3.08
2022-08-01T15:58:20.981Z,3.18
2022-08-01T16:00:48.962Z,3.04
2022-08-01T16:03:17.050Z,2.87
2022-08-01T16:05:45.049Z,2.92
2022-08-01T16:08:13.179Z,3.06
2022-08-01T16:10:42.300Z,2.93
2022-08-01T16:13:10.823Z,2.93
2022-08-01T16:15:40.017Z,3.02
2022-08-01T16:18:10.320Z,3.00
2022-08-01T16:20:44.600Z,2.93
2022-08-01T16:23:15.288Z,3.07
2022-08-01T16:25:44.939Z,4.04
2022-08-01T16:28:14.225Z,3.22
2022-08-01T16:30:48.654Z,3.96
2022-08-01T16:33:53.388Z,5.92
2022-08-01T16:36:16.729Z,6.08
2022-08-01T16:38:45.987Z,4.89
2022-08-01T16:41:20.004Z,4.57
2022-08-01T16:43:53.600Z,4.80
2022-08-01T16:46:25.196Z,4.91
2022-08-01T16:48:54.342Z,5.35
2022-08-01T16:51:22.571Z,8.77
2022-08-01T16:53:50.581Z,3.81
2022-08-01T16:56:18.723Z,7.51
2022-08-01T16:58:46.763Z,5.92
2022-08-01T17:01:57.918Z,3.81
2022-08-01T17:04:03.011Z,2.94
2022-08-01T17:06:31.146Z,4.55
2022-08-01T17:08:59.307Z,5.12
2022-08-01T17:11:27.421Z,5.27
2022-08-01T17:13:55.395Z,3.32
2022-08-01T17:16:23.419Z,4.94
2022-08-01T17:18:51.887Z,4.29
2022-08-01T17:21:20.503Z,4.10
2022-08-01T17:23:49.171Z,4.15
2022-08-01T17:26:17.320Z,3.84
2022-08-01T17:28:45.266Z,3.39
2022-08-01T17:31:13.297Z,3.13
2022-08-01T17:33:45.705Z,7.26
2022-08-01T17:36:17.754Z,5.87
2022-08-01T17:38:46.371Z,4.62
2022-08-01T17:41:14.674Z,4.25
2022-08-01T17:43:42.646Z,3.40
2022-08-01T17:46:10.555Z,3.65
2022-08-01T17:48:38.532Z,3.17
2022-08-01T17:51:06.657Z,3.04
2022-08-01T17:53:34.729Z,4.77
2022-08-01T17:56:05.763Z,5.69
2022-08-01T17:58:51.069Z,6.10
2022-08-01T18:01:21.266Z,3.32
2022-08-01T18:03:49.367Z,3.44
2022-08-01T18:06:17.915Z,3.59
2022-08-01T18:08:48.017Z,3.29
2022-08-01T18:11:17.249Z,3.27
2022-08-01T18:13:45.250Z,3.12
2022-08-01T18:16:13.782Z,3.61
2022-08-01T18:18:43.481Z,3.52
2022-08-01T18:21:12.202Z,3.47
2022-08-01T18:23:40.542Z,3.74
2022-08-01T18:26:22.603Z,3.27
2022-08-01T18:28:50.732Z,3.07
2022-08-01T18:31:20.537Z,3.34
2022-08-01T18:33:49.210Z,3.82
2022-08-01T18:36:32.065Z,3.25
2022-08-01T18:39:10.512Z,4.33
2022-08-01T18:41:39.374Z,3.46
2022-08-01T18:44:08.937Z,3.16
2022-08-01T18:46:38.670Z,3.10
2022-08-01T18:49:09.233Z,3.38
2022-08-01T18:51:43.420Z,3.19
2022-08-01T18:54:16.738Z,3.19
2022-08-01T18:56:45.882Z,2.90
2022-08-01T18:59:14.655Z,3.08
2022-08-01T19:01:42.875Z,2.89
2022-08-01T19:04:11.763Z,2.99
2022-08-01T19:06:40.691Z,3.01
2022-08-01T19:09:09.450Z,3.04
2022-08-01T19:11:37.558Z,2.61
2022-08-01T19:14:05.886Z,3.12
2022-08-01T19:16:34.320Z,3.32
2022-08-01T19:19:06.998Z,3.35
2022-08-01T19:21:37.223Z,3.32
2022-08-01T19:24:17.397Z,3.30
2022-08-01T19:26:53.810Z,3.38
2022-08-01T19:29:35.958Z,7.91
2022-08-01T19:32:10.277Z,9.21
2022-08-01T19:35:04.506Z,3.20
2022-08-01T19:37:33.050Z,3.16
2022-08-01T19:40:01.483Z,3.39
2022-08-01T19:42:30.388Z,3.21
2022-08-01T19:44:59.208Z,3.09
2022-08-01T19:47:28.818Z,5.34
2022-08-01T19:50:15.074Z,6.68
2022-08-01T19:52:45.351Z,5.34
2022-08-01T19:55:14.818Z,4.77
2022-08-01T19:57:59.377Z,5.51
2022-08-01T20:00:39.800Z,7.97
2022-08-01T20:03:09.628Z,7.19
2022-08-01T20:05:39.026Z,5.18
2022-08-01T20:08:07.283Z,4.61
2022-08-01T20:10:38.182Z,4.55
2022-08-01T20:13:06.706Z,5.45
2022-08-01T20:15:34.628Z,5.41
2022-08-01T20:18:02.546Z,5.98
2022-08-01T20:20:32.113Z,4.14
2022-08-01T20:23:01.810Z,3.91
2022-08-01T20:25:39.839Z,4.18
2022-08-01T20:28:10.974Z,4.29
2022-08-01T20:30:41.291Z,3.98
2022-08-01T20:33:11.413Z,3.89
2022-08-01T20:35:53.352Z,4.00
2022-08-01T20:38:24.503Z,3.65
2022-08-01T20:40:59.692Z,3.90
2022-08-01T20:43:27.968Z,3.78
2022-08-01T20:45:57.209Z,3.91
2022-08-01T20:48:31.161Z,3.78
2022-08-01T20:51:16.087Z,3.37
2022-08-01T20:53:49.167Z,3.34
2022-08-01T20:56:26.607Z,3.33
2022-08-01T20:59:54.506Z,3.09
2022-08-01T21:02:31.679Z,3.35
2022-08-01T21:05:10.986Z,3.38
2022-08-01T21:07:45.288Z,3.26
2022-08-01T21:10:16.469Z,3.76
2022-08-01T21:13:03.831Z,3.41
2022-08-01T21:15:34.537Z,3.49
2022-08-01T21:18:16.319Z,3.41
2022-08-01T21:20:47.433Z,3.68
2022-08-01T21:23:36.867Z,3.28
2022-08-01T21:26:04.995Z,3.46
2022-08-01T21:28:34.342Z,3.67
2022-08-01T21:31:03.710Z,3.36
2022-08-01T21:33:37.698Z,3.66
2022-08-01T21:36:27.145Z,3.84
2022-08-01T21:38:58.412Z,3.35
2022-08-01T21:42:01.314Z,3.42
2022-08-01T21:44:16.681Z,3.75
2022-08-01T21:46:47.157Z,3.32
2022-08-01T21:49:15.276Z,3.48
2022-08-01T21:51:51.949Z,3.42
2022-08-01T21:54:50.214Z,3.33
2022-08-01T21:57:55.404Z,3.77
2022-08-01T22:00:25.599Z,3.78
2022-08-01T22:02:57.146Z,3.70
2022-08-01T22:05:49.693Z,3.60
2022-08-01T22:08:21.890Z,3.49
2022-08-01T22:10:58.812Z,3.59
2022-08-01T22:13:27.723Z,3.85
2022-08-01T22:15:57.814Z,3.92
2022-08-01T22:18:28.094Z,4.00
2022-08-01T22:20:56.574Z,3.80
2022-08-01T22:23:24.985Z,4.23
2022-08-01T22:25:54.923Z,4.31
2022-08-01T22:28:24.017Z,4.57
2022-08-01T22:30:52.460Z,4.61
2022-08-01T22:33:20.773Z,4.77
2022-08-01T22:35:51.074Z,4.52
2022-08-01T22:38:21.172Z,4.27
2022-08-01T22:40:54.743Z,3.79
2022-08-01T22:43:30.943Z,3.78
2022-08-01T22:46:40.565Z,3.55
2022-08-01T22:49:45.540Z,4.01
2022-08-01T22:52:20.448Z,3.79
2022-08-01T22:55:17.522Z,3.87
2022-08-01T22:57:58.462Z,3.62
2022-08-01T23:00:30.492Z,3.76
2022-08-01T23:03:24.301Z,3.59
2022-08-01T23:06:12.058Z,3.84
2022-08-01T23:08:41.194Z,3.56
2022-08-01T23:11:09.119Z,3.62
2022-08-01T23:13:37.489Z,3.39
2022-08-01T23:16:05.604Z,3.46
2022-08-01T23:18:33.587Z,3.59
2022-08-01T23:21:03.015Z,3.52
2022-08-01T23:23:31.925Z,3.91
2022-08-01T23:26:00.853Z,3.52
2022-08-01T23:28:29.526Z,3.42
2022-08-01T23:30:59.130Z,3.50
2022-08-01T23:33:27.015Z,3.33
2022-08-01T23:35:54.987Z,3.28
2022-08-01T23:38:22.962Z,3.05
2022-08-01T23:40:51.223Z,3.10
2022-08-01T23:43:19.157Z,3.33
2022-08-01T23:46:03.845Z,3.17
2022-08-01T23:48:37.091Z,3.43
2022-08-01T23:51:06.948Z,3.23
2022-08-01T23:53:38.355Z,3.21
2022-08-01T23:56:06.717Z,3.17
2022-08-01T23:58:34.745Z,3.31
